TimeEST,TemperatureF,Dew PointF,Humidity,Sea Level PressureIn,VisibilityMPH,Wind Direction,Wind SpeedMPH,Gust SpeedMPH,PrecipitationIn,Events,Conditions,WindDirDegrees,DateUTC
1:54 AM,24.1,18.0,77,29.92,10.0,NW,5.8,-,0.00,,Overcast,310,2013-03-02 06:54:00
2:54 AM,24.1,19.0,81,29.90,9.0,NW,9.2,-,0.00,Snow,Light Snow,320,2013-03-02 07:54:00
3:54 AM,24.1,18.0,77,29.90,9.0,WNW,4.6,-,0.00,Snow,Light Snow,290,2013-03-02 08:54:00
4:54 AM,24.1,18.0,77,29.90,7.0,WNW,5.8,-,0.00,Snow,Light Snow,290,2013-03-02 09:54:00
5:54 AM,24.1,17.1,75,29.90,10.0,NW,6.9,-,0.00,,Overcast,310,2013-03-02 10:54:00
6:54 AM,24.1,18.0,77,29.90,9.0,NNW,9.2,-,0.00,Snow,Light Snow,330,2013-03-02 11:54:00
7:54 AM,24.1,16.0,71,29.91,10.0,North,5.8,-,0.00,,Overcast,350,2013-03-02 12:54:00
8:54 AM,25.0,16.0,69,29.91,10.0,Variable,4.6,-,0.00,,Overcast,0,2013-03-02 13:54:00
9:52 AM,24.8,17.6,74,29.85,8.0,North,5.8,-,0.00,Snow,Light Snow,350,2013-03-02 14:52:00
9:54 AM,25.0,17.1,72,29.91,8.0,NNW,6.9,-,0.00,Snow,Light Snow,330,2013-03-02 14:54:00
10:54 AM,25.0,16.0,69,29.90,10.0,NNW,10.4,-,0.00,,Overcast,330,2013-03-02 15:54:00
11:54 AM,27.0,16.0,63,29.89,10.0,NNW,8.1,-,0.00,,Overcast,340,2013-03-02 16:54:00
12:21 PM,26.6,15.8,64,29.83,10.0,NW,10.4,-,N/A,,Overcast,310,2013-03-02 17:21:00
12:54 PM,27.0,15.1,61,29.88,10.0,NNW,9.2,-,N/A,,Overcast,340,2013-03-02 17:54:00
1:54 PM,27.0,16.0,63,29.86,10.0,NW,9.2,-,N/A,,Overcast,310,2013-03-02 18:54:00
2:54 PM,27.0,16.0,63,29.86,10.0,NNW,8.1,-,N/A,,Overcast,330,2013-03-02 19:54:00
3:54 PM,27.0,16.0,63,29.86,10.0,NNW,8.1,-,N/A,,Overcast,330,2013-03-02 20:54:00
4:54 PM,27.0,17.1,66,29.86,10.0,NW,10.4,-,N/A,,Overcast,310,2013-03-02 21:54:00
5:54 PM,26.1,18.0,71,29.88,8.0,WNW,5.8,-,0.00,Snow,Light Snow,290,2013-03-02 22:54:00
6:54 PM,25.0,19.0,78,29.89,4.0,NW,8.1,-,0.00,Snow,Light Snow,310,2013-03-02 23:54:00
7:54 PM,24.1,17.1,75,29.89,10.0,NW,11.5,-,0.00,,Overcast,320,2013-03-03 00:54:00
8:07 PM,24.8,17.6,74,29.83,9.0,NW,8.1,-,0.00,,Overcast,310,2013-03-03 01:07:00
8:28 PM,24.8,17.6,74,29.83,10.0,NNW,8.1,-,0.00,,Overcast,330,2013-03-03 01:28:00
8:54 PM,24.1,18.0,77,29.90,10.0,WNW,10.4,-,0.00,,Overcast,300,2013-03-03 01:54:00
9:54 PM,23.0,17.1,78,29.91,9.0,West,8.1,-,0.00,Snow,Light Snow,280,2013-03-03 02:54:00
10:54 PM,23.0,17.1,78,29.90,8.0,West,5.8,-,0.00,Snow,Light Snow,280,2013-03-03 03:54:00
11:54 PM,21.9,17.1,82,29.89,6.0,West,3.5,-,0.00,Snow,Light Snow,270,2013-03-03 04:54:00